createdAt,value
2023-05-22T00:00:54.820Z,99.90
2023-05-22T00:03:26.855Z,99.90
2023-05-22T00:05:58.955Z,99.90
2023-05-22T00:08:30.066Z,99.90
2023-05-22T00:11:01.043Z,99.90
2023-05-22T00:13:32.054Z,99.90
2023-05-22T00:16:03.363Z,99.90
2023-05-22T00:18:34.320Z,99.90
2023-05-22T00:21:05.373Z,99.90
2023-05-22T00:23:36.466Z,99.90
2023-05-22T00:26:07.450Z,99.90
2023-05-22T00:28:38.294Z,99.90
2023-05-22T00:31:09.642Z,99.90
2023-05-22T00:33:40.801Z,99.90
2023-05-22T00:36:11.836Z,99.90
2023-05-22T00:38:42.719Z,99.90
2023-05-22T00:41:13.975Z,99.90
2023-05-22T00:43:45.640Z,99.90
2023-05-22T00:46:21.485Z,99.90
2023-05-22T00:48:52.813Z,99.90
2023-05-22T00:51:24.979Z,99.90
2023-05-22T00:53:56.469Z,99.90
2023-05-22T00:56:29.120Z,99.90
2023-05-22T00:59:00.440Z,99.90
2023-05-22T01:01:33.689Z,99.90
2023-05-22T01:04:08.181Z,99.90
2023-05-22T01:06:41.420Z,99.90
2023-05-22T01:09:12.418Z,99.90
2023-05-22T01:12:22.165Z,99.90
2023-05-22T01:15:19.876Z,99.90
2023-05-22T01:18:12.800Z,99.90
2023-05-22T01:21:04.371Z,99.90
2023-05-22T01:23:54.238Z,99.90
2023-05-22T01:26:59.859Z,99.90
2023-05-22T01:29:49.991Z,99.90
2023-05-22T01:32:23.384Z,99.90
2023-05-22T01:35:01.784Z,99.90
2023-05-22T01:37:33.554Z,99.90
2023-05-22T01:40:06.506Z,99.90
2023-05-22T01:42:41.179Z,99.90
2023-05-22T01:45:12.440Z,99.90
2023-05-22T01:47:45.060Z,99.90
2023-05-22T01:50:16.566Z,99.90
2023-05-22T01:53:18.838Z,99.90
2023-05-22T01:56:01.804Z,99.90
2023-05-22T01:58:52.514Z,99.90
2023-05-22T02:01:27.325Z,99.90
2023-05-22T02:03:59.008Z,99.90
2023-05-22T02:06:33.420Z,99.90
2023-05-22T02:09:05.692Z,99.90
2023-05-22T02:11:39.278Z,99.90
2023-05-22T02:14:12.307Z,99.90
2023-05-22T02:16:47.388Z,99.90
2023-05-22T02:19:18.700Z,99.90
2023-05-22T02:21:49.833Z,99.90
2023-05-22T02:24:23.638Z,99.90
2023-05-22T02:26:54.590Z,99.90
2023-05-22T02:29:25.564Z,99.90
2023-05-22T02:31:56.523Z,99.90
2023-05-22T02:34:27.623Z,99.90
2023-05-22T02:37:05.709Z,99.90
2023-05-22T02:39:36.655Z,99.90
2023-05-22T02:42:07.978Z,99.90
2023-05-22T02:44:39.297Z,99.90
2023-05-22T02:47:10.363Z,99.90
2023-05-22T02:49:41.333Z,99.90
2023-05-22T02:52:12.270Z,99.90
2023-05-22T02:54:43.299Z,99.90
2023-05-22T02:57:14.281Z,99.90
2023-05-22T02:59:45.442Z,99.90
2023-05-22T03:02:17.776Z,99.90
2023-05-22T03:04:48.694Z,99.90
2023-05-22T03:07:21.461Z,99.90
2023-05-22T03:09:53.236Z,99.90
2023-05-22T03:12:24.386Z,99.90
2023-05-22T03:14:55.298Z,99.90
2023-05-22T03:17:26.374Z,99.90
2023-05-22T03:19:57.334Z,99.90
2023-05-22T03:22:28.232Z,99.90
2023-05-22T03:24:59.176Z,99.90
2023-05-22T03:27:30.111Z,99.90
2023-05-22T03:30:01.546Z,99.90
2023-05-22T03:32:32.569Z,99.90
2023-05-22T03:35:05.019Z,99.90
2023-05-22T03:37:35.916Z,99.90
2023-05-22T03:40:07.847Z,99.90
2023-05-22T03:42:39.116Z,99.90
2023-05-22T03:45:10.728Z,99.90
2023-05-22T03:47:41.786Z,99.90
2023-05-22T03:50:12.840Z,99.90
2023-05-22T03:52:43.737Z,99.90
2023-05-22T03:55:14.862Z,99.90
2023-05-22T03:57:45.796Z,99.90
2023-05-22T04:00:19.550Z,99.90
2023-05-22T04:02:50.627Z,99.90
2023-05-22T04:05:22.370Z,99.90
2023-05-22T04:07:53.357Z,99.90
2023-05-22T04:10:24.602Z,99.90
2023-05-22T04:12:55.521Z,99.90
2023-05-22T04:15:26.548Z,99.90
2023-05-22T04:17:57.553Z,99.90
2023-05-22T04:20:28.583Z,99.90
2023-05-22T04:22:59.507Z,99.90
2023-05-22T04:25:31.624Z,99.90
2023-05-22T04:28:04.121Z,99.90
2023-05-22T04:30:37.728Z,99.90
2023-05-22T04:33:09.049Z,99.90
2023-05-22T04:35:44.316Z,99.90
2023-05-22T04:38:16.125Z,99.90
2023-05-22T04:40:47.807Z,99.90
2023-05-22T04:43:18.908Z,99.90
2023-05-22T04:45:49.820Z,99.90
2023-05-22T04:48:20.949Z,99.90
2023-05-22T04:50:52.137Z,99.90
2023-05-22T04:53:23.071Z,99.90
2023-05-22T04:55:54.259Z,99.90
2023-05-22T04:58:27.444Z,99.90
2023-05-22T05:00:59.292Z,99.90
2023-05-22T05:03:30.566Z,99.90
2023-05-22T05:06:01.565Z,99.90
2023-05-22T05:08:32.458Z,99.90
2023-05-22T05:11:03.453Z,99.90
2023-05-22T05:13:34.368Z,99.90
2023-05-22T05:16:06.620Z,99.90
2023-05-22T05:18:37.629Z,99.90
2023-05-22T05:21:08.574Z,99.90
2023-05-22T05:23:39.549Z,99.90
2023-05-22T05:26:10.514Z,99.90
2023-05-22T05:28:41.445Z,99.90
2023-05-22T05:31:12.426Z,99.90
2023-05-22T05:33:43.411Z,99.90
2023-05-22T05:36:14.824Z,99.90
2023-05-22T05:38:45.831Z,99.90
2023-05-22T05:41:16.941Z,99.90
2023-05-22T05:43:47.931Z,99.90
2023-05-22T05:46:19.623Z,99.90
2023-05-22T05:48:50.644Z,99.90
2023-05-22T05:51:22.210Z,99.90
2023-05-22T05:53:53.280Z,99.90
2023-05-22T05:56:24.227Z,99.90
2023-05-22T05:58:55.133Z,99.90
2023-05-22T06:01:27.135Z,99.90
2023-05-22T06:04:02.918Z,99.90
2023-05-22T06:06:36.627Z,99.90
2023-05-22T06:09:07.704Z,99.90
2023-05-22T06:11:38.685Z,99.90
2023-05-22T06:14:10.242Z,99.90
2023-05-22T06:16:41.773Z,99.90
2023-05-22T06:19:13.092Z,99.90
2023-05-22T06:21:44.147Z,99.90
2023-05-22T06:24:15.169Z,99.90
2023-05-22T06:26:46.356Z,99.90
2023-05-22T06:29:17.271Z,99.90
2023-05-22T06:31:48.233Z,99.90
2023-05-22T06:34:19.320Z,99.90
2023-05-22T06:36:53.199Z,99.90
2023-05-22T06:39:24.110Z,99.90
2023-05-22T06:41:55.023Z,99.90
2023-05-22T06:44:26.013Z,99.90
2023-05-22T06:46:57.577Z,99.90
2023-05-22T06:49:28.669Z,99.90
2023-05-22T06:51:59.604Z,99.90
2023-05-22T06:54:30.591Z,99.90
2023-05-22T06:57:02.124Z,99.90
2023-05-22T06:59:33.166Z,99.90
2023-05-22T07:02:04.466Z,99.90
2023-05-22T07:04:35.558Z,99.90
2023-05-22T07:07:06.549Z,99.90
2023-05-22T07:09:37.492Z,99.90
2023-05-22T07:12:09.330Z,99.90
2023-05-22T07:14:40.309Z,99.90
2023-05-22T07:17:11.274Z,99.90
2023-05-22T07:19:42.199Z,99.90
2023-05-22T07:22:13.140Z,99.90
2023-05-22T07:24:44.264Z,99.90
2023-05-22T07:27:15.221Z,99.90
2023-05-22T07:29:46.171Z,99.90
2023-05-22T07:32:17.115Z,99.90
2023-05-22T07:34:48.132Z,99.90
2023-05-22T07:37:19.146Z,99.90
2023-05-22T07:39:50.094Z,99.90
2023-05-22T07:42:21.774Z,99.90
2023-05-22T07:44:52.644Z,99.90
2023-05-22T07:47:23.703Z,99.90
2023-05-22T07:49:54.757Z,99.90
2023-05-22T07:52:26.006Z,99.90
2023-05-22T07:54:57.681Z,99.90
2023-05-22T07:57:29.952Z,99.90
2023-05-22T08:00:06.352Z,99.90
2023-05-22T08:02:37.481Z,99.90
2023-05-22T08:05:10.069Z,99.90
2023-05-22T08:07:41.564Z,99.90
2023-05-22T08:10:18.424Z,99.90
2023-05-22T08:12:49.487Z,99.90
2023-05-22T08:15:20.634Z,99.90
2023-05-22T08:17:51.686Z,99.90
2023-05-22T08:20:22.751Z,99.90
2023-05-22T08:22:54.502Z,99.90
2023-05-22T08:25:25.485Z,99.90
2023-05-22T08:27:56.430Z,99.90
2023-05-22T08:30:27.700Z,99.90
2023-05-22T08:32:58.674Z,99.90
2023-05-22T08:35:29.601Z,99.90
2023-05-22T08:38:00.579Z,99.90
2023-05-22T08:40:43.283Z,99.90
2023-05-22T08:43:16.561Z,99.90
2023-05-22T08:46:04.395Z,99.90
2023-05-22T08:48:35.561Z,99.90
2023-05-22T08:51:07.859Z,99.90
2023-05-22T08:53:40.639Z,99.90
2023-05-22T08:56:11.743Z,99.90
2023-05-22T08:58:43.083Z,99.90
2023-05-22T09:01:15.253Z,99.90
2023-05-22T09:03:49.267Z,99.90
2023-05-22T09:06:20.286Z,99.90
2023-05-22T09:08:52.159Z,99.90
2023-05-22T09:11:23.826Z,99.90
2023-05-22T09:14:10.483Z,99.90
2023-05-22T09:16:50.419Z,99.90
2023-05-22T09:19:21.512Z,99.90
2023-05-22T09:21:52.516Z,99.90
2023-05-22T09:24:23.454Z,99.90
2023-05-22T09:26:54.366Z,99.90
2023-05-22T09:29:25.458Z,99.90
2023-05-22T09:31:56.506Z,99.90
2023-05-22T09:34:30.961Z,99.90
2023-05-22T09:37:05.761Z,99.90
2023-05-22T09:39:43.130Z,99.90
2023-05-22T09:42:18.148Z,99.90
2023-05-22T09:44:50.138Z,99.90
2023-05-22T09:47:21.684Z,99.90
2023-05-22T09:49:52.707Z,99.90
2023-05-22T09:52:24.759Z,99.90
2023-05-22T09:54:56.686Z,99.90
2023-05-22T09:57:32.259Z,99.90
2023-05-22T10:00:09.433Z,99.90
2023-05-22T10:02:46.314Z,99.90
2023-05-22T10:05:23.382Z,99.90
2023-05-22T10:07:57.754Z,99.90
2023-05-22T10:10:28.728Z,99.90
2023-05-22T10:13:05.423Z,99.90
2023-05-22T10:15:36.532Z,99.90
2023-05-22T10:18:07.829Z,99.90
2023-05-22T10:20:39.881Z,99.90
2023-05-22T10:23:11.978Z,99.90
2023-05-22T10:25:44.522Z,99.90
2023-05-22T10:28:26.298Z,99.90
2023-05-22T10:31:09.693Z,99.90
2023-05-22T10:33:54.420Z,99.90
2023-05-22T10:36:56.053Z,99.90
2023-05-22T10:39:49.017Z,99.90
2023-05-22T10:42:20.080Z,99.90
2023-05-22T10:44:51.100Z,99.90
2023-05-22T10:47:22.143Z,99.90
2023-05-22T10:50:11.366Z,99.90
2023-05-22T10:52:42.367Z,99.60
2023-05-22T10:55:13.510Z,99.50
2023-05-22T10:57:44.424Z,99.90
2023-05-22T11:00:19.906Z,99.90
2023-05-22T11:02:50.989Z,99.50
2023-05-22T11:05:21.891Z,99.60
2023-05-22T11:07:52.906Z,99.90
2023-05-22T11:10:27.942Z,99.50
2023-05-22T11:13:14.389Z,98.90
2023-05-22T11:15:48.835Z,98.40
2023-05-22T11:18:19.761Z,97.80
2023-05-22T11:20:50.938Z,97.00
2023-05-22T11:23:23.846Z,96.70
2023-05-22T11:25:54.915Z,95.40
2023-05-22T11:28:26.103Z,95.20
2023-05-22T11:30:57.956Z,92.70
2023-05-22T11:33:28.940Z,92.00
2023-05-22T11:36:02.015Z,93.00
2023-05-22T11:38:33.662Z,92.60
2023-05-22T11:41:04.688Z,93.20
2023-05-22T11:43:36.969Z,91.50
2023-05-22T11:46:10.654Z,91.30
2023-05-22T11:48:44.523Z,92.70
2023-05-22T11:51:20.709Z,92.40
2023-05-22T11:53:52.480Z,93.00
2023-05-22T11:56:23.465Z,91.60
2023-05-22T11:58:54.406Z,91.50
2023-05-22T12:01:25.486Z,91.00
2023-05-22T12:03:56.580Z,91.50
2023-05-22T12:06:27.740Z,91.60
2023-05-22T12:09:01.620Z,91.80
2023-05-22T12:11:36.423Z,92.00
2023-05-22T12:14:12.482Z,92.70
2023-05-22T12:16:44.717Z,91.70
2023-05-22T12:19:17.787Z,92.40
2023-05-22T12:21:54.101Z,92.20
2023-05-22T12:24:25.907Z,91.90
2023-05-22T12:26:56.954Z,92.20
2023-05-22T12:29:28.133Z,91.70
2023-05-22T12:32:04.015Z,92.00
2023-05-22T12:34:36.269Z,92.10
2023-05-22T12:37:21.886Z,93.00
2023-05-22T12:39:58.259Z,93.30
2023-05-22T12:42:29.253Z,93.30
2023-05-22T12:45:00.752Z,92.10
2023-05-22T12:47:32.695Z,91.80
2023-05-22T12:50:03.882Z,91.20
2023-05-22T12:52:35.988Z,91.10
2023-05-22T12:55:07.792Z,91.60
2023-05-22T12:57:38.742Z,91.30
2023-05-22T13:00:10.506Z,90.90
2023-05-22T13:02:41.678Z,91.20
2023-05-22T13:05:12.620Z,91.90
2023-05-22T13:07:43.608Z,91.20
2023-05-22T13:10:14.645Z,90.10
2023-05-22T13:12:48.582Z,90.90
2023-05-22T13:15:19.569Z,89.70
2023-05-22T13:17:50.955Z,90.00
2023-05-22T13:20:22.072Z,88.70
2023-05-22T13:22:52.962Z,88.10
2023-05-22T13:25:24.179Z,88.50
2023-05-22T13:27:55.123Z,87.50
2023-05-22T13:30:26.101Z,87.60
2023-05-22T13:32:57.334Z,87.10
2023-05-22T13:35:28.433Z,86.80
2023-05-22T13:37:59.477Z,87.30
2023-05-22T13:40:30.720Z,86.90
2023-05-22T13:43:01.723Z,85.70
2023-05-22T13:45:32.771Z,85.30
2023-05-22T13:48:03.809Z,84.70
2023-05-22T13:50:34.807Z,85.30
2023-05-22T13:53:05.806Z,84.80
2023-05-22T13:55:36.796Z,85.20
2023-05-22T13:58:07.742Z,84.70
2023-05-22T14:00:38.688Z,86.00
2023-05-22T14:03:11.440Z,84.20
2023-05-22T14:05:42.871Z,81.00
2023-05-22T14:08:13.867Z,81.50
2023-05-22T14:10:44.903Z,79.50
2023-05-22T14:13:15.905Z,80.80
2023-05-22T14:15:47.062Z,81.10
2023-05-22T14:18:18.136Z,81.20
2023-05-22T14:20:49.325Z,79.40
2023-05-22T14:23:20.243Z,76.90
2023-05-22T14:25:51.213Z,78.70
2023-05-22T14:28:22.246Z,78.40
2023-05-22T14:30:53.294Z,77.70
2023-05-22T14:33:24.225Z,76.80
2023-05-22T14:35:55.167Z,76.60
2023-05-22T14:38:26.758Z,77.10
2023-05-22T14:40:57.639Z,76.00
2023-05-22T14:43:28.950Z,76.60
2023-05-22T14:45:59.952Z,78.50
2023-05-22T14:48:30.941Z,81.00
2023-05-22T14:51:02.175Z,79.60
2023-05-22T14:53:33.126Z,80.40
2023-05-22T14:56:04.060Z,80.20
2023-05-22T14:58:34.948Z,81.40
2023-05-22T15:01:06.073Z,81.80
2023-05-22T15:03:37.014Z,81.30
2023-05-22T15:06:08.089Z,79.00
2023-05-22T15:08:39.116Z,79.30
2023-05-22T15:11:10.070Z,78.80
2023-05-22T15:13:40.953Z,81.50
2023-05-22T15:16:11.996Z,83.00
2023-05-22T15:18:43.461Z,83.20
2023-05-22T15:21:14.724Z,83.90
2023-05-22T15:23:47.007Z,84.30
2023-05-22T15:26:18.199Z,83.40
2023-05-22T15:28:49.771Z,83.10
2023-05-22T15:31:20.784Z,83.90
2023-05-22T15:33:51.755Z,84.00
2023-05-22T15:36:23.433Z,84.00
2023-05-22T15:38:54.397Z,84.80
2023-05-22T15:41:25.841Z,85.40
2023-05-22T15:43:56.779Z,83.00
2023-05-22T15:46:27.712Z,83.00
2023-05-22T15:48:58.788Z,83.00
2023-05-22T15:51:30.142Z,82.30
2023-05-22T15:54:01.304Z,81.60
2023-05-22T15:56:32.224Z,82.00
2023-05-22T15:59:03.149Z,82.50
2023-05-22T16:01:34.802Z,82.20
2023-05-22T16:04:06.274Z,83.00
2023-05-22T16:06:37.294Z,82.70
2023-05-22T16:09:10.432Z,83.10
2023-05-22T16:11:41.724Z,83.60
2023-05-22T16:14:12.819Z,83.60
2023-05-22T16:16:44.012Z,84.00
2023-05-22T16:19:15.012Z,83.20
2023-05-22T16:21:45.988Z,83.10
2023-05-22T16:24:16.954Z,84.10
2023-05-22T16:26:47.997Z,83.80
2023-05-22T16:29:20.926Z,80.80
2023-05-22T16:31:52.209Z,80.40
2023-05-22T16:34:23.287Z,82.20
2023-05-22T16:36:54.198Z,83.10
2023-05-22T16:39:27.283Z,81.70
2023-05-22T16:41:58.209Z,82.30
2023-05-22T16:44:29.220Z,81.10
2023-05-22T16:47:00.177Z,82.00
2023-05-22T16:49:31.214Z,82.10
2023-05-22T16:52:02.119Z,83.20
2023-05-22T16:54:33.072Z,84.40
2023-05-22T16:57:05.496Z,85.10
2023-05-22T16:59:36.503Z,85.00
2023-05-22T17:02:08.828Z,85.40
2023-05-22T17:04:40.703Z,86.70
2023-05-22T17:07:11.819Z,88.00
2023-05-22T17:09:42.757Z,86.40
2023-05-22T17:12:13.671Z,86.80
2023-05-22T17:14:44.644Z,86.70
2023-05-22T17:17:15.751Z,87.30
2023-05-22T17:19:46.796Z,88.30
2023-05-22T17:22:17.748Z,90.00
2023-05-22T17:24:49.155Z,90.60
2023-05-22T17:27:31.984Z,90.90
2023-05-22T17:30:07.765Z,90.80
2023-05-22T17:32:38.754Z,90.30
2023-05-22T17:35:09.782Z,90.70
2023-05-22T17:37:40.681Z,91.10
2023-05-22T17:40:11.842Z,91.00
2023-05-22T17:42:42.955Z,91.40
2023-05-22T17:45:14.209Z,91.60
2023-05-22T17:47:50.379Z,91.90
2023-05-22T17:50:21.434Z,92.00
2023-05-22T17:52:52.430Z,90.90
2023-05-22T17:55:23.433Z,90.60
2023-05-22T17:57:54.462Z,90.80
2023-05-22T18:00:25.676Z,91.20
2023-05-22T18:02:56.803Z,92.00
2023-05-22T18:05:27.963Z,92.60
2023-05-22T18:07:59.640Z,92.50
2023-05-22T18:10:30.712Z,92.30
2023-05-22T18:13:01.597Z,92.90
2023-05-22T18:15:33.098Z,92.90
2023-05-22T18:18:04.449Z,92.70
2023-05-22T18:20:37.751Z,92.70
2023-05-22T18:23:08.848Z,92.80
2023-05-22T18:25:39.874Z,92.70
2023-05-22T18:28:10.852Z,92.90
2023-05-22T18:30:44.668Z,92.90
2023-05-22T18:33:16.664Z,92.90
2023-05-22T18:35:47.817Z,93.10
2023-05-22T18:38:18.843Z,93.60
2023-05-22T18:40:49.881Z,93.60
2023-05-22T18:43:27.594Z,93.90
2023-05-22T18:45:59.068Z,94.20
2023-05-22T18:48:30.985Z,94.30
2023-05-22T18:51:02.069Z,94.30
2023-05-22T18:53:33.069Z,94.30
2023-05-22T18:56:03.961Z,94.90
2023-05-22T18:58:35.088Z,95.20
2023-05-22T19:01:06.020Z,95.10
2023-05-22T19:03:36.943Z,95.30
2023-05-22T19:06:08.241Z,96.20
2023-05-22T19:08:39.217Z,95.60
2023-05-22T19:11:10.137Z,95.90
2023-05-22T19:13:41.723Z,95.80
2023-05-22T19:16:14.537Z,96.00
2023-05-22T19:18:45.612Z,96.40
2023-05-22T19:21:16.741Z,96.50
2023-05-22T19:23:48.434Z,97.30
2023-05-22T19:26:19.575Z,96.70
2023-05-22T19:28:50.517Z,97.10
2023-05-22T19:31:21.762Z,97.20
2023-05-22T19:33:52.716Z,97.50
2023-05-22T19:36:23.666Z,97.60
2023-05-22T19:38:54.578Z,98.00
2023-05-22T19:41:26.696Z,98.20
2023-05-22T19:43:57.710Z,98.30
2023-05-22T19:46:28.831Z,98.90
2023-05-22T19:48:59.879Z,98.80
2023-05-22T19:51:32.263Z,98.80
2023-05-22T19:54:03.778Z,99.20
2023-05-22T19:56:35.689Z,99.40
2023-05-22T19:59:06.709Z,99.70
2023-05-22T20:01:37.712Z,99.70
2023-05-22T20:04:08.711Z,99.80
2023-05-22T20:06:39.742Z,99.70
2023-05-22T20:09:11.399Z,99.30
2023-05-22T20:11:42.387Z,99.80
2023-05-22T20:14:13.591Z,99.80
2023-05-22T20:16:44.523Z,99.30
2023-05-22T20:19:17.597Z,99.10
2023-05-22T20:21:49.923Z,99.90
2023-05-22T20:24:22.099Z,99.90
2023-05-22T20:26:53.443Z,99.50
2023-05-22T20:29:24.455Z,98.80
2023-05-22T20:31:55.949Z,98.90
2023-05-22T20:34:28.550Z,98.60
2023-05-22T20:37:00.216Z,98.40
2023-05-22T20:39:31.792Z,98.60
2023-05-22T20:42:03.145Z,98.60
2023-05-22T20:44:37.963Z,98.80
2023-05-22T20:47:09.579Z,98.90
2023-05-22T20:49:41.259Z,99.30
2023-05-22T20:52:13.422Z,99.90
2023-05-22T20:54:44.354Z,99.90
2023-05-22T20:57:15.340Z,99.90
2023-05-22T20:59:46.494Z,99.90
2023-05-22T21:02:17.814Z,99.90
2023-05-22T21:04:48.866Z,99.70
2023-05-22T21:07:19.939Z,99.40
2023-05-22T21:09:51.054Z,99.10
2023-05-22T21:12:22.093Z,99.00
2023-05-22T21:14:52.985Z,99.20
2023-05-22T21:17:24.943Z,99.30
2023-05-22T21:19:56.124Z,99.10
2023-05-22T21:22:27.108Z,99.00
2023-05-22T21:24:58.024Z,99.20
2023-05-22T21:27:28.953Z,99.30
2023-05-22T21:29:59.861Z,99.20
2023-05-22T21:32:30.920Z,99.30
2023-05-22T21:35:01.842Z,99.30
2023-05-22T21:37:32.814Z,99.30
2023-05-22T21:40:04.107Z,99.50
2023-05-22T21:42:45.936Z,99.70
2023-05-22T21:45:18.416Z,99.80
2023-05-22T21:47:49.429Z,99.80
2023-05-22T21:50:20.440Z,99.90
2023-05-22T21:52:51.431Z,99.70
2023-05-22T21:55:22.573Z,99.70
2023-05-22T21:57:53.468Z,99.80
2023-05-22T22:00:24.483Z,99.70
2023-05-22T22:02:57.426Z,99.90
2023-05-22T22:05:28.555Z,99.80
2023-05-22T22:07:59.445Z,99.90
2023-05-22T22:10:30.392Z,99.90
2023-05-22T22:13:02.350Z,99.90
2023-05-22T22:15:33.888Z,99.90
2023-05-22T22:18:05.226Z,99.90
2023-05-22T22:20:44.101Z,99.90
2023-05-22T22:23:16.733Z,99.90
2023-05-22T22:25:48.681Z,99.90
2023-05-22T22:28:19.638Z,99.90
2023-05-22T22:30:50.629Z,99.90
2023-05-22T22:33:22.864Z,99.90
2023-05-22T22:35:53.878Z,99.90
2023-05-22T22:38:24.882Z,99.90
2023-05-22T22:40:55.955Z,99.90
2023-05-22T22:43:26.967Z,99.90
2023-05-22T22:45:57.907Z,99.90
2023-05-22T22:48:28.824Z,99.90
2023-05-22T22:50:59.836Z,99.90
2023-05-22T22:53:30.751Z,99.90
2023-05-22T22:56:01.768Z,99.90
2023-05-22T22:58:32.766Z,99.90
2023-05-22T23:01:05.234Z,99.90
2023-05-22T23:03:36.284Z,99.90
2023-05-22T23:06:08.477Z,99.90
2023-05-22T23:08:39.678Z,99.90
2023-05-22T23:11:10.738Z,99.90
2023-05-22T23:13:43.567Z,99.90
2023-05-22T23:16:14.710Z,99.90
2023-05-22T23:18:45.912Z,99.90
2023-05-22T23:21:16.820Z,99.90
2023-05-22T23:23:47.802Z,99.90
2023-05-22T23:26:18.754Z,99.90
2023-05-22T23:28:49.813Z,99.90
2023-05-22T23:31:26.163Z,99.90
2023-05-22T23:33:57.993Z,99.90
2023-05-22T23:36:29.043Z,99.90
2023-05-22T23:39:00.094Z,99.90
2023-05-22T23:41:31.113Z,99.90
2023-05-22T23:44:02.677Z,99.90
2023-05-22T23:46:33.824Z,99.90
2023-05-22T23:49:05.449Z,99.90
2023-05-22T23:51:36.680Z,99.90
2023-05-22T23:54:07.684Z,99.90
2023-05-22T23:56:39.002Z,99.90
2023-05-22T23:59:09.880Z,99.90
